createdAt,value
2022-10-22T00:01:01.390Z,8.10
2022-10-22T00:03:29.341Z,8.00
2022-10-22T00:05:57.858Z,8.00
2022-10-22T00:08:27.220Z,8.00
2022-10-22T00:10:55.197Z,7.90
2022-10-22T00:13:23.713Z,7.90
2022-10-22T00:15:51.707Z,7.90
2022-10-22T00:18:19.668Z,7.90
2022-10-22T00:20:47.740Z,7.90
2022-10-22T00:23:15.724Z,7.90
2022-10-22T00:25:45.060Z,7.90
2022-10-22T00:28:13.060Z,7.90
2022-10-22T00:30:41.037Z,7.90
2022-10-22T00:33:09.008Z,7.90
2022-10-22T00:35:37.322Z,7.80
2022-10-22T00:38:05.876Z,7.80
2022-10-22T00:40:36.079Z,7.80
2022-10-22T00:43:05.570Z,7.80
2022-10-22T00:45:33.579Z,7.80
2022-10-22T00:48:04.603Z,7.80
2022-10-22T00:50:36.605Z,7.80
2022-10-22T00:53:07.487Z,7.70
2022-10-22T00:55:35.641Z,7.70
2022-10-22T00:58:05.232Z,7.70
2022-10-22T01:00:33.134Z,7.70
2022-10-22T01:03:04.571Z,7.80
2022-10-22T01:05:40.370Z,7.70
2022-10-22T01:08:19.785Z,7.70
2022-10-22T01:10:57.816Z,7.70
2022-10-22T01:13:36.582Z,7.80
2022-10-22T01:16:12.192Z,7.70
2022-10-22T01:18:49.883Z,7.80
2022-10-22T01:21:28.112Z,7.80
2022-10-22T01:24:33.380Z,7.80
2022-10-22T01:27:12.907Z,7.80
2022-10-22T01:29:44.576Z,7.70
2022-10-22T01:32:17.448Z,7.80
2022-10-22T01:34:49.584Z,7.70
2022-10-22T01:37:19.590Z,7.70
2022-10-22T01:39:49.215Z,7.70
2022-10-22T01:42:17.327Z,7.80
2022-10-22T01:44:48.760Z,7.80
2022-10-22T01:47:23.447Z,7.80
2022-10-22T01:50:24.366Z,7.80
2022-10-22T01:53:18.961Z,7.80
2022-10-22T01:55:58.336Z,7.80
2022-10-22T01:58:39.015Z,7.80
2022-10-22T02:01:19.536Z,7.80
2022-10-22T02:03:57.090Z,7.70
2022-10-22T02:06:27.326Z,7.80
2022-10-22T02:08:57.197Z,7.70
2022-10-22T02:11:25.286Z,7.70
2022-10-22T02:13:57.771Z,7.80
2022-10-22T02:16:31.205Z,7.70
2022-10-22T02:19:03.954Z,7.80
2022-10-22T02:21:32.628Z,7.80
2022-10-22T02:24:00.639Z,7.80
2022-10-22T02:26:33.538Z,7.80
2022-10-22T02:29:07.783Z,7.80
2022-10-22T02:31:41.568Z,7.80
2022-10-22T02:34:14.604Z,7.80
2022-10-22T02:36:46.807Z,7.70
2022-10-22T02:39:18.752Z,7.70
2022-10-22T02:41:46.817Z,7.70
2022-10-22T02:44:14.859Z,7.70
2022-10-22T02:46:45.041Z,7.70
2022-10-22T02:49:13.080Z,7.70
2022-10-22T02:51:41.112Z,7.70
2022-10-22T02:54:09.177Z,7.70
2022-10-22T02:56:37.208Z,7.80
2022-10-22T02:59:05.541Z,7.70
2022-10-22T03:01:33.562Z,7.70
2022-10-22T03:04:02.926Z,7.70
2022-10-22T03:06:30.936Z,7.70
2022-10-22T03:08:58.956Z,7.70
2022-10-22T03:11:26.959Z,7.60
2022-10-22T03:13:54.917Z,7.60
2022-10-22T03:16:22.929Z,7.50
2022-10-22T03:18:50.928Z,7.50
2022-10-22T03:21:29.070Z,7.50
2022-10-22T03:23:57.361Z,7.50
2022-10-22T03:26:26.298Z,7.40
2022-10-22T03:28:55.557Z,7.40
2022-10-22T03:31:23.552Z,7.40
2022-10-22T03:33:51.553Z,7.40
2022-10-22T03:36:21.051Z,7.40
2022-10-22T03:38:48.863Z,7.40
2022-10-22T03:41:17.017Z,7.40
2022-10-22T03:43:49.549Z,7.40
2022-10-22T03:46:17.927Z,7.40
2022-10-22T03:48:46.014Z,7.40
2022-10-22T03:51:14.151Z,7.40
2022-10-22T03:53:43.564Z,7.40
2022-10-22T03:56:12.650Z,7.40
2022-10-22T03:58:42.230Z,7.40
2022-10-22T04:01:10.851Z,7.40
2022-10-22T04:03:39.604Z,7.40
2022-10-22T04:06:10.247Z,7.40
2022-10-22T04:08:40.241Z,7.50
2022-10-22T04:11:10.414Z,7.40
2022-10-22T04:13:38.859Z,7.50
2022-10-22T04:16:11.300Z,7.40
2022-10-22T04:18:40.394Z,7.50
2022-10-22T04:21:10.239Z,7.50
2022-10-22T04:23:38.730Z,7.50
2022-10-22T04:26:09.112Z,7.50
2022-10-22T04:28:37.176Z,7.50
2022-10-22T04:31:09.837Z,7.60
2022-10-22T04:33:38.031Z,7.50
2022-10-22T04:36:10.186Z,7.50
2022-10-22T04:38:38.170Z,7.50
2022-10-22T04:41:12.677Z,7.60
2022-10-22T04:43:41.096Z,7.50
2022-10-22T04:46:10.086Z,7.50
2022-10-22T04:48:39.313Z,7.60
2022-10-22T04:51:08.955Z,7.60
2022-10-22T04:53:36.787Z,7.60
2022-10-22T04:56:09.440Z,7.60
2022-10-22T04:58:39.408Z,7.60
2022-10-22T05:01:12.634Z,7.60
2022-10-22T05:03:40.838Z,7.70
2022-10-22T05:06:10.151Z,7.60
2022-10-22T05:08:38.298Z,7.60
2022-10-22T05:11:12.805Z,7.70
2022-10-22T05:13:42.318Z,7.70
2022-10-22T05:16:10.313Z,7.70
2022-10-22T05:18:39.077Z,7.70
2022-10-22T05:21:10.353Z,7.70
2022-10-22T05:23:38.425Z,7.70
2022-10-22T05:26:08.176Z,7.70
2022-10-22T05:28:37.818Z,7.70
2022-10-22T05:31:08.624Z,7.70
2022-10-22T05:33:36.742Z,7.70
2022-10-22T05:36:06.124Z,7.70
2022-10-22T05:38:35.363Z,7.80
2022-10-22T05:41:05.398Z,7.80
2022-10-22T05:43:33.616Z,7.80
2022-10-22T05:46:04.879Z,7.80
2022-10-22T05:48:34.319Z,7.80
2022-10-22T05:51:05.500Z,7.80
2022-10-22T05:53:34.089Z,7.90
2022-10-22T05:56:02.981Z,7.90
2022-10-22T05:58:31.491Z,7.90
2022-10-22T06:01:03.465Z,7.90
2022-10-22T06:03:31.954Z,7.90
2022-10-22T06:06:16.966Z,7.90
2022-10-22T06:08:45.368Z,8.00
2022-10-22T06:11:13.448Z,8.00
2022-10-22T06:13:41.435Z,8.00
2022-10-22T06:16:09.429Z,8.00
2022-10-22T06:18:37.580Z,8.00
2022-10-22T06:21:08.397Z,8.00
2022-10-22T06:23:37.037Z,8.00
2022-10-22T06:26:06.421Z,8.00
2022-10-22T06:28:34.758Z,8.00
2022-10-22T06:31:04.877Z,8.00
2022-10-22T06:33:34.045Z,8.00
2022-10-22T06:36:08.607Z,8.00
2022-10-22T06:38:36.632Z,8.00
2022-10-22T06:41:05.885Z,8.00
2022-10-22T06:43:33.965Z,8.00
2022-10-22T06:46:02.370Z,8.00
2022-10-22T06:48:31.033Z,8.00
2022-10-22T06:51:03.158Z,8.00
2022-10-22T06:53:32.648Z,8.00
2022-10-22T06:56:00.763Z,8.00
2022-10-22T06:58:28.706Z,8.10
2022-10-22T07:01:03.678Z,8.10
2022-10-22T07:03:31.836Z,8.10
2022-10-22T07:06:01.285Z,8.20
2022-10-22T07:08:29.682Z,8.20
2022-10-22T07:11:07.304Z,8.30
2022-10-22T07:13:35.665Z,8.40
2022-10-22T07:16:03.775Z,8.50
2022-10-22T07:18:32.146Z,8.50
2022-10-22T07:21:00.148Z,8.60
2022-10-22T07:23:28.479Z,8.70
2022-10-22T07:25:57.910Z,8.70
2022-10-22T07:28:27.881Z,8.80
2022-10-22T07:30:55.968Z,8.80
2022-10-22T07:33:24.004Z,8.90
2022-10-22T07:35:52.110Z,8.90
2022-10-22T07:38:20.092Z,8.80
2022-10-22T07:40:48.114Z,8.90
2022-10-22T07:43:17.505Z,8.90
2022-10-22T07:45:45.971Z,8.90
2022-10-22T07:48:14.864Z,9.00
2022-10-22T07:53:15.738Z,9.10
2022-10-22T07:55:43.847Z,9.10
2022-10-22T07:58:11.851Z,9.10
2022-10-22T08:00:41.183Z,9.20
2022-10-22T08:03:11.751Z,9.20
2022-10-22T08:05:40.251Z,9.20
2022-10-22T08:08:08.570Z,9.30
2022-10-22T08:10:36.581Z,9.30
2022-10-22T08:13:04.618Z,9.30
2022-10-22T08:15:32.637Z,9.40
2022-10-22T08:18:02.017Z,9.50
2022-10-22T08:20:30.009Z,9.60
2022-10-22T08:22:58.400Z,9.60
2022-10-22T08:25:26.537Z,9.70
2022-10-22T08:27:54.552Z,9.70
2022-10-22T08:30:22.846Z,9.80
2022-10-22T08:32:53.952Z,9.80
2022-10-22T08:35:23.711Z,9.90
2022-10-22T08:37:51.532Z,10.00
2022-10-22T08:40:25.222Z,10.00
2022-10-22T08:43:15.364Z,10.10
2022-10-22T08:45:49.211Z,10.10
2022-10-22T08:48:31.214Z,10.20
2022-10-22T08:51:00.910Z,10.30
2022-10-22T08:53:37.782Z,10.30
2022-10-22T08:56:06.077Z,10.40
2022-10-22T08:58:41.268Z,10.40
2022-10-22T09:01:14.514Z,10.40
2022-10-22T09:03:50.445Z,10.50
2022-10-22T09:06:23.141Z,10.50
2022-10-22T09:08:51.776Z,10.60
2022-10-22T09:11:27.654Z,10.70
2022-10-22T09:13:57.263Z,10.80
2022-10-22T09:16:27.924Z,10.90
2022-10-22T09:19:05.343Z,11.00
2022-10-22T09:21:43.823Z,11.10
2022-10-22T09:24:14.872Z,11.10
2022-10-22T09:26:42.916Z,11.30
2022-10-22T09:29:18.936Z,11.40
2022-10-22T09:31:47.272Z,11.50
2022-10-22T09:34:16.536Z,11.60
2022-10-22T09:36:45.881Z,11.70
2022-10-22T09:39:25.170Z,11.80
2022-10-22T09:41:53.416Z,11.80
2022-10-22T09:44:22.002Z,11.90
2022-10-22T09:46:50.053Z,12.00
2022-10-22T09:49:20.612Z,12.00
2022-10-22T09:51:55.812Z,12.10
2022-10-22T09:54:26.627Z,12.20
2022-10-22T09:56:59.592Z,12.30
2022-10-22T09:59:32.442Z,12.40
2022-10-22T10:02:13.761Z,12.50
2022-10-22T10:04:51.054Z,12.60
2022-10-22T10:07:22.297Z,12.70
2022-10-22T10:09:51.481Z,12.80
2022-10-22T10:12:31.748Z,12.90
2022-10-22T10:15:13.615Z,13.00
2022-10-22T10:17:48.290Z,13.10
2022-10-22T10:20:28.861Z,13.20
2022-10-22T10:23:04.604Z,13.20
2022-10-22T10:25:49.766Z,13.20
2022-10-22T10:28:29.481Z,13.30
2022-10-22T10:31:07.890Z,13.30
2022-10-22T10:33:46.396Z,13.30
2022-10-22T10:36:24.212Z,13.30
2022-10-22T10:38:59.663Z,13.30
2022-10-22T10:41:38.668Z,13.30
2022-10-22T10:44:28.025Z,13.30
2022-10-22T10:47:08.560Z,13.30
2022-10-22T10:49:37.340Z,13.30
2022-10-22T10:52:18.863Z,13.30
2022-10-22T10:55:00.597Z,13.30
2022-10-22T10:57:33.747Z,13.20
2022-10-22T11:00:07.336Z,13.20
2022-10-22T11:03:10.150Z,13.10
2022-10-22T11:05:40.955Z,13.00
2022-10-22T11:08:15.257Z,13.00
2022-10-22T11:10:49.167Z,13.00
2022-10-22T11:13:24.078Z,12.90
2022-10-22T11:15:56.998Z,12.90
2022-10-22T11:18:29.939Z,12.90
2022-10-22T11:21:11.953Z,12.90
2022-10-22T11:23:45.877Z,12.80
2022-10-22T11:26:25.155Z,12.90
2022-10-22T11:28:55.940Z,12.80
2022-10-22T11:31:26.359Z,12.90
2022-10-22T11:34:10.074Z,12.90
2022-10-22T11:36:48.450Z,12.90
2022-10-22T11:39:33.198Z,12.90
2022-10-22T11:42:05.145Z,13.00
2022-10-22T11:44:46.244Z,13.00
2022-10-22T11:47:20.024Z,13.10
2022-10-22T11:49:57.880Z,13.20
2022-10-22T11:52:29.131Z,13.20
2022-10-22T11:54:58.754Z,13.20
2022-10-22T11:57:39.347Z,13.30
2022-10-22T12:00:13.819Z,13.30
2022-10-22T12:02:44.546Z,13.30
2022-10-22T12:05:37.680Z,13.30
2022-10-22T12:08:17.327Z,13.40
2022-10-22T12:11:06.449Z,13.40
2022-10-22T12:13:58.493Z,13.50
2022-10-22T12:16:37.937Z,13.60
2022-10-22T12:19:25.480Z,13.60
2022-10-22T12:21:55.597Z,13.70
2022-10-22T12:24:25.731Z,13.70
2022-10-22T12:26:53.720Z,13.80
2022-10-22T12:29:26.497Z,13.80
2022-10-22T12:31:54.957Z,14.00
2022-10-22T12:34:25.126Z,14.10
2022-10-22T12:36:54.896Z,14.10
2022-10-22T12:39:26.977Z,14.20
2022-10-22T12:41:55.945Z,14.20
2022-10-22T12:44:25.384Z,14.20
2022-10-22T12:46:56.838Z,14.30
2022-10-22T12:49:32.928Z,14.30
2022-10-22T12:52:04.113Z,14.30
2022-10-22T12:54:34.221Z,14.30
2022-10-22T12:57:03.035Z,14.30
2022-10-22T12:59:35.990Z,14.30
2022-10-22T13:02:13.364Z,14.20
2022-10-22T13:04:41.522Z,14.30
2022-10-22T13:07:22.308Z,14.30
2022-10-22T13:09:59.751Z,14.40
2022-10-22T13:12:29.166Z,14.40
2022-10-22T13:14:58.391Z,14.60
2022-10-22T13:17:41.127Z,14.80
2022-10-22T13:20:19.052Z,14.90
2022-10-22T13:23:00.320Z,15.30
2022-10-22T13:25:30.891Z,15.90
2022-10-22T13:28:01.765Z,16.50
2022-10-22T13:30:33.002Z,16.90
2022-10-22T13:33:03.113Z,17.20
2022-10-22T13:35:34.801Z,17.30
2022-10-22T13:38:03.552Z,17.30
2022-10-22T13:40:31.531Z,17.30
2022-10-22T13:42:59.499Z,17.30
2022-10-22T13:45:27.921Z,17.30
2022-10-22T13:47:57.530Z,17.20
2022-10-22T13:50:25.945Z,17.10
2022-10-22T13:52:56.431Z,17.10
2022-10-22T13:55:26.704Z,17.10
2022-10-22T13:57:58.042Z,16.90
2022-10-22T14:00:26.647Z,16.70
2022-10-22T14:02:58.957Z,16.50
2022-10-22T14:05:27.472Z,16.30
2022-10-22T14:07:57.857Z,16.20
2022-10-22T14:10:26.441Z,16.20
2022-10-22T14:12:54.608Z,16.10
2022-10-22T14:15:25.037Z,16.10
2022-10-22T14:17:57.215Z,16.10
2022-10-22T14:20:29.449Z,16.00
2022-10-22T14:23:02.277Z,15.90
2022-10-22T14:25:31.447Z,15.80
2022-10-22T14:27:59.415Z,15.80
2022-10-22T14:30:29.598Z,15.90
2022-10-22T14:32:59.647Z,16.10
2022-10-22T14:35:29.053Z,16.40
2022-10-22T14:37:58.244Z,16.60
2022-10-22T14:40:26.219Z,16.60
2022-10-22T14:42:54.645Z,16.80
2022-10-22T14:45:24.662Z,17.20
2022-10-22T14:47:54.879Z,17.60
2022-10-22T14:50:23.308Z,18.00
2022-10-22T14:52:52.959Z,18.10
2022-10-22T14:55:21.281Z,18.00
2022-10-22T14:57:49.309Z,17.70
2022-10-22T15:00:19.307Z,17.50
2022-10-22T15:02:48.501Z,17.20
2022-10-22T15:05:17.416Z,16.80
2022-10-22T15:07:46.700Z,16.50
2022-10-22T15:10:16.080Z,16.20
2022-10-22T15:12:43.914Z,16.00
2022-10-22T15:15:12.648Z,15.70
2022-10-22T15:17:40.818Z,15.50
2022-10-22T15:20:09.452Z,15.30
2022-10-22T15:22:37.531Z,15.20
2022-10-22T15:25:08.320Z,15.00
2022-10-22T15:27:37.699Z,14.80
2022-10-22T15:30:07.381Z,14.60
2022-10-22T15:32:35.503Z,14.50
2022-10-22T15:35:05.686Z,14.40
2022-10-22T15:37:33.669Z,14.20
2022-10-22T15:40:03.668Z,14.10
2022-10-22T15:42:31.685Z,14.00
2022-10-22T15:45:02.211Z,13.90
2022-10-22T15:47:31.302Z,13.80
2022-10-22T15:49:59.404Z,13.70
2022-10-22T15:52:27.446Z,13.60
2022-10-22T15:54:55.616Z,13.50
2022-10-22T15:57:23.718Z,13.40
2022-10-22T15:59:52.047Z,13.30
2022-10-22T16:02:21.449Z,13.10
2022-10-22T16:04:49.433Z,13.00
2022-10-22T16:07:19.873Z,13.00
2022-10-22T16:09:50.507Z,12.90
2022-10-22T16:12:18.504Z,12.80
2022-10-22T16:14:46.440Z,12.80
2022-10-22T16:17:14.411Z,12.70
2022-10-22T16:19:43.732Z,12.70
2022-10-22T16:22:13.767Z,12.60
2022-10-22T16:24:41.783Z,12.60
2022-10-22T16:27:10.538Z,12.50
2022-10-22T16:29:39.462Z,12.40
2022-10-22T16:32:08.182Z,12.40
2022-10-22T16:34:36.166Z,12.20
2022-10-22T16:37:10.070Z,12.20
2022-10-22T16:39:38.834Z,12.10
2022-10-22T16:42:07.410Z,11.90
2022-10-22T16:44:35.360Z,11.90
2022-10-22T16:47:03.323Z,11.80
2022-10-22T16:49:31.297Z,11.70
2022-10-22T16:51:59.315Z,11.60
2022-10-22T16:54:28.811Z,11.60
2022-10-22T16:56:56.640Z,11.40
2022-10-22T16:59:24.751Z,11.40
2022-10-22T17:01:53.242Z,11.30
2022-10-22T17:04:22.392Z,11.20
2022-10-22T17:06:50.400Z,11.10
2022-10-22T17:09:18.479Z,11.00
2022-10-22T17:11:47.904Z,10.90
2022-10-22T17:14:15.893Z,10.80
2022-10-22T17:16:44.814Z,10.70
2022-10-22T17:19:15.686Z,10.70
2022-10-22T17:21:44.185Z,10.60
2022-10-22T17:24:12.219Z,10.50
2022-10-22T17:26:40.239Z,10.50
2022-10-22T17:29:09.893Z,10.40
2022-10-22T17:31:39.273Z,10.30
2022-10-22T17:34:09.400Z,10.20
2022-10-22T17:36:38.150Z,10.10
2022-10-22T17:39:08.184Z,10.00
2022-10-22T17:41:38.027Z,9.90
2022-10-22T17:44:09.344Z,9.90
2022-10-22T17:46:39.321Z,9.80
2022-10-22T17:49:17.180Z,9.80
2022-10-22T17:51:45.466Z,9.70
2022-10-22T17:54:14.205Z,9.70
2022-10-22T17:56:42.281Z,9.70
2022-10-22T17:59:13.512Z,9.60
2022-10-22T18:01:45.588Z,9.60
2022-10-22T18:04:16.358Z,9.40
2022-10-22T18:06:46.081Z,9.40
2022-10-22T18:09:18.418Z,9.30
2022-10-22T18:11:47.613Z,9.30
2022-10-22T18:14:15.631Z,9.20
2022-10-22T18:16:45.019Z,9.20
2022-10-22T18:19:17.057Z,9.20
2022-10-22T18:21:45.051Z,9.10
2022-10-22T18:24:14.895Z,9.10
2022-10-22T18:26:43.182Z,9.10
2022-10-22T18:29:11.711Z,9.00
2022-10-22T18:31:39.751Z,9.00
2022-10-22T18:34:09.174Z,9.00
2022-10-22T18:36:38.750Z,9.00
2022-10-22T18:39:06.588Z,9.00
2022-10-22T18:41:35.846Z,9.00
2022-10-22T18:44:05.644Z,9.00
2022-10-22T18:46:38.273Z,8.90
2022-10-22T18:49:08.314Z,8.80
2022-10-22T18:51:37.377Z,8.80
2022-10-22T18:54:21.821Z,8.70
2022-10-22T18:56:50.533Z,8.60
2022-10-22T18:59:20.490Z,8.50
2022-10-22T19:01:48.579Z,8.50
2022-10-22T19:04:17.930Z,8.40
2022-10-22T19:06:46.184Z,8.40
2022-10-22T19:09:15.222Z,8.30
2022-10-22T19:11:43.945Z,8.30
2022-10-22T19:14:12.062Z,8.30
2022-10-22T19:16:40.123Z,8.30
2022-10-22T19:19:08.913Z,8.30
2022-10-22T19:21:38.655Z,8.30
2022-10-22T19:24:07.858Z,8.30
2022-10-22T19:26:35.885Z,8.30
2022-10-22T19:29:04.110Z,8.30
2022-10-22T19:31:32.786Z,8.20
2022-10-22T19:34:02.153Z,8.20
2022-10-22T19:36:32.400Z,8.10
2022-10-22T19:39:02.398Z,8.10
2022-10-22T19:41:31.997Z,8.10
2022-10-22T19:44:01.535Z,8.00
2022-10-22T19:46:30.164Z,8.00
2022-10-22T19:48:58.166Z,8.00
2022-10-22T19:51:27.389Z,8.00
2022-10-22T19:53:59.842Z,7.90
2022-10-22T19:56:29.472Z,7.90
2022-10-22T19:58:58.042Z,7.90
2022-10-22T20:01:26.769Z,7.90
2022-10-22T20:03:57.720Z,7.90
2022-10-22T20:06:26.036Z,7.90
2022-10-22T20:08:56.631Z,7.80
2022-10-22T20:11:26.653Z,7.80
2022-10-22T20:13:57.220Z,7.70
2022-10-22T20:16:28.438Z,7.70
2022-10-22T20:18:59.910Z,7.70
2022-10-22T20:21:28.177Z,7.70
2022-10-22T20:23:57.406Z,7.60
2022-10-22T20:26:28.014Z,7.70
2022-10-22T20:28:58.641Z,7.70
2022-10-22T20:31:29.213Z,7.60
2022-10-22T20:33:58.521Z,7.60
2022-10-22T20:36:28.292Z,7.50
2022-10-22T20:39:01.068Z,7.50
2022-10-22T20:41:29.228Z,7.50
2022-10-22T20:43:58.567Z,7.40
2022-10-22T20:46:29.115Z,7.40
2022-10-22T20:49:00.899Z,7.30
2022-10-22T20:51:29.121Z,7.30
2022-10-22T20:53:57.261Z,7.30
2022-10-22T20:56:25.479Z,7.30
2022-10-22T20:59:04.018Z,7.20
2022-10-22T21:01:37.247Z,7.20
2022-10-22T21:04:05.830Z,7.20
2022-10-22T21:06:37.837Z,7.20
2022-10-22T21:09:07.163Z,7.20
2022-10-22T21:11:35.776Z,7.20
2022-10-22T21:14:03.855Z,7.10
2022-10-22T21:16:33.332Z,7.10
2022-10-22T21:19:01.119Z,7.10
2022-10-22T21:21:29.117Z,7.10
2022-10-22T21:23:57.114Z,7.20
2022-10-22T21:26:25.089Z,7.20
2022-10-22T21:28:53.109Z,7.10
2022-10-22T21:31:21.581Z,7.10
2022-10-22T21:33:51.396Z,7.10
2022-10-22T21:36:22.674Z,7.10
2022-10-22T21:38:51.745Z,7.10
2022-10-22T21:41:21.401Z,7.10
2022-10-22T21:43:49.747Z,7.20
2022-10-22T21:46:19.880Z,7.10
2022-10-22T21:48:48.216Z,7.20
2022-10-22T21:51:19.431Z,7.20
2022-10-22T21:53:48.255Z,7.20
2022-10-22T21:56:17.756Z,7.10
2022-10-22T21:58:46.020Z,7.10
2022-10-22T22:01:14.697Z,7.10
2022-10-22T22:03:43.977Z,7.10
2022-10-22T22:06:13.002Z,7.10
2022-10-22T22:08:43.073Z,7.10
2022-10-22T22:11:13.204Z,7.10
2022-10-22T22:13:42.039Z,7.00
2022-10-22T22:16:12.664Z,7.00
2022-10-22T22:18:41.669Z,7.00
2022-10-22T22:21:11.809Z,6.90
2022-10-22T22:23:43.400Z,6.90
2022-10-22T22:26:12.217Z,6.80
2022-10-22T22:28:40.294Z,6.80
2022-10-22T22:31:19.665Z,6.70
2022-10-22T22:33:47.653Z,6.70
2022-10-22T22:36:16.114Z,6.70
2022-10-22T22:38:45.511Z,6.70
2022-10-22T22:41:13.468Z,6.70
2022-10-22T22:43:41.436Z,6.70
2022-10-22T22:46:12.525Z,6.70
2022-10-22T22:48:40.621Z,6.60
2022-10-22T22:51:09.243Z,6.60
2022-10-22T22:53:37.522Z,6.70
2022-10-22T22:56:10.138Z,6.70
2022-10-22T22:58:40.384Z,6.70
2022-10-22T23:01:14.372Z,6.70
2022-10-22T23:03:43.071Z,6.70
2022-10-22T23:06:12.004Z,6.60
2022-10-22T23:08:40.376Z,6.60
2022-10-22T23:11:12.236Z,6.60
2022-10-22T23:13:41.083Z,6.50
2022-10-22T23:16:12.841Z,6.50
2022-10-22T23:18:40.933Z,6.40
2022-10-22T23:21:13.753Z,6.50
2022-10-22T23:23:44.755Z,6.40
2022-10-22T23:26:15.076Z,6.40
2022-10-22T23:28:43.115Z,6.50
2022-10-22T23:31:13.616Z,6.40
2022-10-22T23:33:42.016Z,6.40
2022-10-22T23:36:10.718Z,6.40
2022-10-22T23:38:40.028Z,6.40
2022-10-22T23:41:08.434Z,6.40
2022-10-22T23:43:39.183Z,6.40
2022-10-22T23:46:09.753Z,6.40
2022-10-22T23:48:39.036Z,6.40
2022-10-22T23:51:08.679Z,6.40
2022-10-22T23:53:36.768Z,6.40
2022-10-22T23:56:05.957Z,6.40
2022-10-22T23:58:34.657Z,6.40
